메인 페이지
METAR-TAF:

METAR-TAF

공항 :

라바트, 모로코

위도: 34-03N, 경도: 006-46W, 고도: 84m

현재 날씨관측

예보는 10분 전, 01:00시(UTC)에 발표되었습니다.
무풍
온도 19°C
습도 88%
기압 1017 hPa
시정 10km 이상
고도 1500ft 상공 구름 보통

METAR: GMME 150100Z 00000KT 9999 SCT015 19/17 Q1017 NOSIG

시각: 02:10 (01:10 UTC)

예보

예보는 2 시간 10분 전, 23:00시(UTC)에 발표되었습니다.
예보 대상 시간: 15일 00시부터 16일 06시까지 (UTC)
북북서10kt
시정: 8000m
고도 1500ft 상공 구름 보통
일시적
15일 00시부터 15일 06시까지 (UTC)
여러 방향의 바람 2kt

TAF: GMME 142300Z 1500/1606 34010KT 8000 SCT015 TEMPO 1500/1506 VRB02KT

4,000개 이상의 공항 관측 자료 및 예보 (METAR 및 TAF 보고).

지도상에서 검색 가능한 기상관측소가 노란 점과 빨간 점으로 표시되어 있습니다.

기상관측소 명을 보려면 표시 위로 마우스를 이동하세요.

날씨 관측과 예보를 보려면 클릭하세요.

지도 변경 : 확대하려면 엑스 표시가 있는 녹색 버튼, 축소하려면 빼기 표시가 있는 녹색 버튼, 다음 페이지의 지도를 보려면 녹색 화살표를 클릭하세요.


METAR-TAF: